createdAt,value
2023-01-09T00:00:49.849Z,8.40
2023-01-09T00:03:17.110Z,8.40
2023-01-09T00:05:44.031Z,8.40
2023-01-09T00:08:10.905Z,8.40
2023-01-09T00:10:37.969Z,8.40
2023-01-09T00:13:04.802Z,8.40
2023-01-09T00:15:31.675Z,8.30
2023-01-09T00:17:58.577Z,8.30
2023-01-09T00:20:25.536Z,8.30
2023-01-09T00:22:52.348Z,8.30
2023-01-09T00:25:19.350Z,8.30
2023-01-09T00:27:46.275Z,8.30
2023-01-09T00:30:13.482Z,8.20
2023-01-09T00:32:43.290Z,8.30
2023-01-09T00:35:18.148Z,8.20
2023-01-09T00:37:45.910Z,8.30
2023-01-09T00:40:14.989Z,8.30
2023-01-09T00:42:45.073Z,8.30
2023-01-09T00:45:17.298Z,8.30
2023-01-09T00:47:48.069Z,8.20
2023-01-09T00:50:20.337Z,8.20
2023-01-09T00:52:48.145Z,8.20
2023-01-09T00:55:16.048Z,8.30
2023-01-09T00:57:43.298Z,8.30
2023-01-09T01:00:10.973Z,8.20
2023-01-09T01:02:37.940Z,8.30
2023-01-09T01:05:24.747Z,8.30
2023-01-09T01:07:51.952Z,8.30
2023-01-09T01:10:21.884Z,8.20
2023-01-09T01:12:50.225Z,8.30
2023-01-09T01:15:18.597Z,8.30
2023-01-09T01:17:46.258Z,8.30
2023-01-09T01:20:17.808Z,8.20
2023-01-09T01:22:45.164Z,8.20
2023-01-09T01:25:13.921Z,8.10
2023-01-09T01:27:41.370Z,8.10
2023-01-09T01:30:09.846Z,8.10
2023-01-09T01:32:37.520Z,8.00
2023-01-09T01:35:05.529Z,8.00
2023-01-09T01:37:33.475Z,8.00
2023-01-09T01:40:00.395Z,8.00
2023-01-09T01:42:27.744Z,8.00
2023-01-09T01:45:19.704Z,7.90
2023-01-09T01:48:12.925Z,7.90
2023-01-09T01:50:46.271Z,7.90
2023-01-09T01:53:19.181Z,7.90
2023-01-09T01:56:14.122Z,7.80
2023-01-09T01:58:52.548Z,7.80
2023-01-09T02:01:20.986Z,7.80
2023-01-09T02:03:48.452Z,7.80
2023-01-09T02:06:16.029Z,7.80
2023-01-09T02:08:43.741Z,7.80
2023-01-09T02:11:13.129Z,7.70
2023-01-09T02:13:40.637Z,7.70
2023-01-09T02:16:52.013Z,7.70
2023-01-09T02:19:57.929Z,7.70
2023-01-09T02:22:39.677Z,7.60
2023-01-09T02:25:31.463Z,7.50
2023-01-09T02:28:26.632Z,7.50
2023-01-09T02:31:03.130Z,7.50
2023-01-09T02:33:42.507Z,7.40
2023-01-09T02:36:27.344Z,7.40
2023-01-09T02:39:14.395Z,7.40
2023-01-09T02:41:47.529Z,7.30
2023-01-09T02:44:24.279Z,7.30
2023-01-09T02:47:29.410Z,7.40
2023-01-09T02:50:04.140Z,7.40
2023-01-09T02:52:42.444Z,7.30
2023-01-09T02:55:30.826Z,7.30
2023-01-09T02:58:15.327Z,7.30
2023-01-09T03:01:12.092Z,7.40
2023-01-09T03:04:04.194Z,7.40
2023-01-09T03:07:00.677Z,7.40
2023-01-09T03:09:31.786Z,7.40
2023-01-09T03:12:14.608Z,7.40
2023-01-09T03:14:47.883Z,7.30
2023-01-09T03:17:20.329Z,7.30
2023-01-09T03:19:48.593Z,7.30
2023-01-09T03:22:15.527Z,7.30
2023-01-09T03:24:42.471Z,7.30
2023-01-09T03:27:10.121Z,7.30
2023-01-09T03:29:37.587Z,7.30
2023-01-09T03:32:04.667Z,7.30
2023-01-09T03:34:31.525Z,7.30
2023-01-09T03:36:58.406Z,7.30
2023-01-09T03:39:25.425Z,7.40
2023-01-09T03:41:52.304Z,7.40
2023-01-09T03:44:19.087Z,7.40
2023-01-09T03:46:46.002Z,7.40
2023-01-09T03:49:13.977Z,7.40
2023-01-09T03:51:40.863Z,7.40
2023-01-09T03:57:55.731Z,7.40
2023-01-09T04:00:22.696Z,7.40
2023-01-09T04:02:49.490Z,7.40
2023-01-09T04:05:16.639Z,7.40
2023-01-09T04:07:43.738Z,7.40
2023-01-09T04:10:12.160Z,7.40
2023-01-09T04:12:39.078Z,7.40
2023-01-09T04:15:06.478Z,7.40
2023-01-09T04:17:33.646Z,7.40
2023-01-09T04:20:00.467Z,7.50
2023-01-09T04:22:27.311Z,7.50
2023-01-09T04:24:54.156Z,7.50
2023-01-09T04:27:20.909Z,7.50
2023-01-09T04:29:47.900Z,7.50
2023-01-09T04:32:14.879Z,7.50
2023-01-09T04:34:41.760Z,7.50
2023-01-09T04:37:08.540Z,7.40
2023-01-09T04:39:35.691Z,7.40
2023-01-09T04:42:02.576Z,7.40
2023-01-09T04:44:29.675Z,7.40
2023-01-09T04:46:59.139Z,7.40
2023-01-09T04:49:26.150Z,7.40
2023-01-09T04:51:53.225Z,7.40
2023-01-09T04:54:20.735Z,7.40
2023-01-09T04:56:47.921Z,7.40
2023-01-09T04:59:16.483Z,7.40
2023-01-09T05:01:52.168Z,7.40
2023-01-09T05:04:19.290Z,7.40
2023-01-09T05:06:52.793Z,7.40
2023-01-09T05:09:20.174Z,7.30
2023-01-09T05:11:47.168Z,7.30
2023-01-09T05:14:14.230Z,7.20
2023-01-09T05:16:41.408Z,7.20
2023-01-09T05:19:09.136Z,7.10
2023-01-09T05:21:36.076Z,7.10
2023-01-09T05:24:03.244Z,7.10
2023-01-09T05:26:30.154Z,7.10
2023-01-09T05:28:57.422Z,7.10
2023-01-09T05:31:26.004Z,7.00
2023-01-09T05:33:56.141Z,7.00
2023-01-09T05:36:22.996Z,7.00
2023-01-09T05:38:49.822Z,7.10
2023-01-09T05:41:16.676Z,7.00
2023-01-09T05:43:43.636Z,7.00
2023-01-09T05:46:18.048Z,6.90
2023-01-09T05:48:45.296Z,6.90
2023-01-09T05:51:12.527Z,6.90
2023-01-09T05:53:39.834Z,6.80
2023-01-09T05:56:14.870Z,6.80
2023-01-09T05:58:41.803Z,6.80
2023-01-09T06:01:08.824Z,6.80
2023-01-09T06:03:35.751Z,6.80
2023-01-09T06:06:03.245Z,6.70
2023-01-09T06:08:30.295Z,6.70
2023-01-09T06:10:57.224Z,6.70
2023-01-09T06:13:24.034Z,6.70
2023-01-09T06:15:51.080Z,6.70
2023-01-09T06:18:18.050Z,6.60
2023-01-09T06:20:46.163Z,6.60
2023-01-09T06:23:13.802Z,6.60
2023-01-09T06:25:41.584Z,6.60
2023-01-09T06:28:08.484Z,6.60
2023-01-09T06:30:35.442Z,6.60
2023-01-09T06:33:08.669Z,6.60
2023-01-09T06:35:35.656Z,6.50
2023-01-09T06:38:03.657Z,6.50
2023-01-09T06:40:30.578Z,6.50
2023-01-09T06:42:57.561Z,6.50
2023-01-09T06:45:24.888Z,6.60
2023-01-09T06:47:54.887Z,6.60
2023-01-09T06:50:22.071Z,6.60
2023-01-09T06:52:50.366Z,6.60
2023-01-09T06:55:17.826Z,6.60
2023-01-09T06:57:44.975Z,6.70
2023-01-09T07:00:12.504Z,6.60
2023-01-09T07:02:39.303Z,6.60
2023-01-09T07:05:11.401Z,6.60
2023-01-09T07:07:42.140Z,6.60
2023-01-09T07:10:10.321Z,6.50
2023-01-09T07:12:37.220Z,6.40
2023-01-09T07:15:04.484Z,6.50
2023-01-09T07:17:32.882Z,6.60
2023-01-09T07:20:01.678Z,6.60
2023-01-09T07:22:32.612Z,6.70
2023-01-09T07:24:59.520Z,6.60
2023-01-09T07:27:26.388Z,6.60
2023-01-09T07:29:53.784Z,6.70
2023-01-09T07:32:20.700Z,6.70
2023-01-09T07:34:49.171Z,6.60
2023-01-09T07:37:16.099Z,6.60
2023-01-09T07:39:43.542Z,6.60
2023-01-09T07:42:11.265Z,6.70
2023-01-09T07:44:38.411Z,6.70
2023-01-09T07:47:05.297Z,6.80
2023-01-09T07:49:32.554Z,6.80
2023-01-09T07:51:59.478Z,6.80
2023-01-09T07:54:26.422Z,6.80
2023-01-09T07:56:54.006Z,6.90
2023-01-09T07:59:21.328Z,6.90
2023-01-09T08:01:48.425Z,6.90
2023-01-09T08:04:15.361Z,7.00
2023-01-09T08:06:42.328Z,6.90
2023-01-09T08:09:09.399Z,7.00
2023-01-09T08:11:40.954Z,6.90
2023-01-09T08:14:07.973Z,6.90
2023-01-09T08:16:34.739Z,6.90
2023-01-09T08:19:01.565Z,6.90
2023-01-09T08:21:28.482Z,6.90
2023-01-09T08:23:55.375Z,7.00
2023-01-09T08:26:22.523Z,7.00
2023-01-09T08:28:49.402Z,7.00
2023-01-09T08:31:16.599Z,7.00
2023-01-09T08:33:44.506Z,7.10
2023-01-09T08:36:11.572Z,7.10
2023-01-09T08:38:38.402Z,7.10
2023-01-09T08:41:25.586Z,7.10
2023-01-09T08:44:11.357Z,7.10
2023-01-09T08:46:56.688Z,7.10
2023-01-09T08:49:23.524Z,7.20
2023-01-09T08:51:50.383Z,7.30
2023-01-09T08:54:17.402Z,7.30
2023-01-09T08:56:45.590Z,7.40
2023-01-09T08:59:16.648Z,7.30
2023-01-09T09:01:49.023Z,7.40
2023-01-09T09:04:16.112Z,7.40
2023-01-09T09:06:43.049Z,7.40
2023-01-09T09:09:10.837Z,7.50
2023-01-09T09:11:40.862Z,7.50
2023-01-09T09:14:27.455Z,7.40
2023-01-09T09:16:54.999Z,7.40
2023-01-09T09:19:25.175Z,7.50
2023-01-09T09:21:52.102Z,7.50
2023-01-09T09:24:19.056Z,7.50
2023-01-09T09:26:46.060Z,7.50
2023-01-09T09:29:13.071Z,7.60
2023-01-09T09:31:45.111Z,7.60
2023-01-09T09:34:13.456Z,7.60
2023-01-09T09:36:40.454Z,7.60
2023-01-09T09:39:09.691Z,7.60
2023-01-09T09:42:40.389Z,7.70
2023-01-09T09:45:37.086Z,7.70
2023-01-09T09:48:32.116Z,7.70
2023-01-09T09:51:20.639Z,7.70
2023-01-09T09:54:05.954Z,7.70
2023-01-09T09:56:44.243Z,7.70
2023-01-09T09:59:28.449Z,7.70
2023-01-09T10:02:04.532Z,7.70
2023-01-09T10:04:34.871Z,7.70
2023-01-09T10:07:09.717Z,7.70
2023-01-09T10:09:59.195Z,7.70
2023-01-09T10:12:52.637Z,7.70
2023-01-09T10:15:48.603Z,7.70
2023-01-09T10:18:38.166Z,7.60
2023-01-09T10:21:35.120Z,7.60
2023-01-09T10:24:33.113Z,7.60
2023-01-09T10:27:09.882Z,7.70
2023-01-09T10:29:41.754Z,7.70
2023-01-09T10:32:14.551Z,7.70
2023-01-09T10:34:51.278Z,7.80
2023-01-09T10:37:20.651Z,7.80
2023-01-09T10:39:55.739Z,7.90
2023-01-09T10:42:52.152Z,7.90
2023-01-09T10:45:54.714Z,8.00
2023-01-09T10:48:34.881Z,8.00
2023-01-09T10:51:05.681Z,8.10
2023-01-09T10:53:42.408Z,8.10
2023-01-09T10:56:19.325Z,8.20
2023-01-09T10:58:46.711Z,8.20
2023-01-09T11:01:14.678Z,8.20
2023-01-09T11:03:41.621Z,8.20
2023-01-09T11:06:23.230Z,8.30
2023-01-09T11:08:57.215Z,8.40
2023-01-09T11:11:40.951Z,8.40
2023-01-09T11:14:31.492Z,8.40
2023-01-09T11:17:05.196Z,8.30
2023-01-09T11:19:33.674Z,8.30
2023-01-09T11:22:06.695Z,8.30
2023-01-09T11:24:33.949Z,8.30
2023-01-09T11:27:13.132Z,8.30
2023-01-09T11:29:43.361Z,8.40
2023-01-09T11:32:23.533Z,8.50
2023-01-09T11:34:50.805Z,8.50
2023-01-09T11:37:31.805Z,8.50
2023-01-09T11:40:00.634Z,8.50
2023-01-09T11:42:48.258Z,8.40
2023-01-09T11:45:19.634Z,8.40
2023-01-09T11:47:47.108Z,8.40
2023-01-09T11:50:26.160Z,8.40
2023-01-09T11:53:13.544Z,8.50
2023-01-09T11:55:43.230Z,8.50
2023-01-09T11:58:20.889Z,8.40
2023-01-09T12:01:18.053Z,8.40
2023-01-09T12:04:09.145Z,8.40
2023-01-09T12:07:02.987Z,8.40
2023-01-09T12:10:17.553Z,8.40
2023-01-09T12:12:51.205Z,8.30
2023-01-09T12:15:33.893Z,8.30
2023-01-09T12:18:25.559Z,8.20
2023-01-09T12:21:08.317Z,8.10
2023-01-09T12:23:44.290Z,8.10
2023-01-09T12:26:31.624Z,8.10
2023-01-09T12:29:23.871Z,8.20
2023-01-09T12:31:58.269Z,8.30
2023-01-09T12:34:51.360Z,8.30
2023-01-09T12:37:47.276Z,8.40
2023-01-09T12:40:17.157Z,8.40
2023-01-09T12:42:44.371Z,8.40
2023-01-09T12:45:45.013Z,8.50
2023-01-09T12:48:41.415Z,8.40
2023-01-09T12:51:30.877Z,8.40
2023-01-09T12:54:13.572Z,8.40
2023-01-09T12:56:56.047Z,8.50
2023-01-09T12:59:32.462Z,8.50
2023-01-09T13:02:20.135Z,8.50
2023-01-09T13:05:00.234Z,8.50
2023-01-09T13:07:38.309Z,8.40
2023-01-09T13:10:24.186Z,8.30
2023-01-09T13:12:58.862Z,8.20
2023-01-09T13:15:55.247Z,8.20
2023-01-09T13:18:36.212Z,8.20
2023-01-09T13:21:12.942Z,8.20
2023-01-09T13:23:55.342Z,8.20
2023-01-09T13:26:51.192Z,8.00
2023-01-09T13:29:37.344Z,7.90
2023-01-09T13:32:21.925Z,7.80
2023-01-09T13:34:53.578Z,7.70
2023-01-09T13:37:28.089Z,7.70
2023-01-09T13:40:04.167Z,7.70
2023-01-09T13:42:46.052Z,7.80
2023-01-09T13:45:26.111Z,7.80
2023-01-09T13:48:25.380Z,7.90
2023-01-09T13:50:55.781Z,8.00
2023-01-09T13:53:27.126Z,7.90
2023-01-09T13:56:09.554Z,8.00
2023-01-09T13:58:39.662Z,8.00
2023-01-09T14:01:25.226Z,8.00
2023-01-09T14:04:18.148Z,7.90
2023-01-09T14:07:16.671Z,7.80
2023-01-09T14:09:50.886Z,7.80
2023-01-09T14:12:20.549Z,7.80
2023-01-09T14:14:48.985Z,7.80
2023-01-09T14:17:27.503Z,7.80
2023-01-09T14:19:57.752Z,7.70
2023-01-09T14:22:28.160Z,7.80
2023-01-09T14:25:01.119Z,8.20
2023-01-09T14:27:55.929Z,8.60
2023-01-09T14:30:54.060Z,9.20
2023-01-09T14:33:21.879Z,9.60
2023-01-09T14:36:16.979Z,9.90
2023-01-09T14:38:58.606Z,10.00
2023-01-09T14:41:46.648Z,9.90
2023-01-09T14:44:30.502Z,10.00
2023-01-09T14:47:11.235Z,9.70
2023-01-09T14:49:43.801Z,9.40
2023-01-09T14:52:26.748Z,8.80
2023-01-09T14:54:58.415Z,8.50
2023-01-09T14:57:30.622Z,8.40
2023-01-09T15:00:19.027Z,8.20
2023-01-09T15:02:47.380Z,8.20
2023-01-09T15:05:18.806Z,8.00
2023-01-09T15:07:51.829Z,8.00
2023-01-09T15:10:25.620Z,8.00
2023-01-09T15:12:56.857Z,8.00
2023-01-09T15:15:25.759Z,7.90
2023-01-09T15:18:06.769Z,7.90
2023-01-09T15:20:35.202Z,7.90
2023-01-09T15:23:05.858Z,7.80
2023-01-09T15:25:40.403Z,7.80
2023-01-09T15:28:26.437Z,7.70
2023-01-09T15:30:57.085Z,7.70
2023-01-09T15:33:24.824Z,7.70
2023-01-09T15:35:55.189Z,7.70
2023-01-09T15:38:28.747Z,7.60
2023-01-09T15:40:57.926Z,7.60
2023-01-09T15:43:29.957Z,7.70
2023-01-09T15:45:58.157Z,7.60
2023-01-09T15:48:31.300Z,7.60
2023-01-09T15:51:05.334Z,7.60
2023-01-09T15:53:37.478Z,7.50
2023-01-09T15:56:27.134Z,7.50
2023-01-09T15:58:56.521Z,7.50
2023-01-09T16:01:30.844Z,7.40
2023-01-09T16:04:16.187Z,7.40
2023-01-09T16:06:49.913Z,7.40
2023-01-09T16:09:29.079Z,7.40
2023-01-09T16:12:01.979Z,7.40
2023-01-09T16:14:38.835Z,7.40
2023-01-09T16:17:15.902Z,7.40
2023-01-09T16:19:52.370Z,7.30
2023-01-09T16:22:22.422Z,7.30
2023-01-09T16:24:53.714Z,7.20
2023-01-09T16:27:27.242Z,7.20
2023-01-09T16:29:59.728Z,7.10
2023-01-09T16:32:28.887Z,7.00
2023-01-09T16:35:05.579Z,7.00
2023-01-09T16:37:34.025Z,7.00
2023-01-09T16:40:22.580Z,6.90
2023-01-09T16:43:01.263Z,6.90
2023-01-09T16:45:31.979Z,6.90
2023-01-09T16:48:10.039Z,6.90
2023-01-09T16:50:37.177Z,6.90
2023-01-09T16:53:22.355Z,6.90
2023-01-09T16:55:49.885Z,6.90
2023-01-09T16:58:24.421Z,6.90
2023-01-09T17:00:51.452Z,6.90
2023-01-09T17:03:20.229Z,6.90
2023-01-09T17:05:53.132Z,6.90
2023-01-09T17:08:21.973Z,7.00
2023-01-09T17:10:50.439Z,7.00
2023-01-09T17:13:17.619Z,6.90
2023-01-09T17:15:45.861Z,6.90
2023-01-09T17:18:21.855Z,6.90
2023-01-09T17:20:53.064Z,6.90
2023-01-09T17:23:22.575Z,6.90
2023-01-09T17:26:16.363Z,6.80
2023-01-09T17:28:49.805Z,6.80
2023-01-09T17:31:17.174Z,6.80
2023-01-09T17:33:44.342Z,6.80
2023-01-09T17:36:27.832Z,6.90
2023-01-09T17:38:55.324Z,6.80
2023-01-09T17:41:24.103Z,6.80
2023-01-09T17:43:51.643Z,6.80
2023-01-09T17:46:31.736Z,6.80
2023-01-09T17:48:59.401Z,6.80
2023-01-09T17:51:27.246Z,6.70
2023-01-09T17:53:54.220Z,6.70
2023-01-09T17:56:30.095Z,6.70
2023-01-09T17:58:57.767Z,6.70
2023-01-09T18:01:24.874Z,6.70
2023-01-09T18:03:52.161Z,6.70
2023-01-09T18:06:21.267Z,6.70
2023-01-09T18:08:48.531Z,6.70
2023-01-09T18:11:21.486Z,6.70
2023-01-09T18:13:50.705Z,6.70
2023-01-09T18:16:21.689Z,6.70
2023-01-09T18:18:48.902Z,6.70
2023-01-09T18:21:17.863Z,6.70
2023-01-09T18:23:44.844Z,6.60
2023-01-09T18:26:20.161Z,6.60
2023-01-09T18:28:56.753Z,6.50
2023-01-09T18:31:24.670Z,6.50
2023-01-09T18:33:53.395Z,6.50
2023-01-09T18:36:22.350Z,6.40
2023-01-09T18:38:53.616Z,6.30
2023-01-09T18:41:21.896Z,6.40
2023-01-09T18:43:50.281Z,6.30
2023-01-09T18:46:20.625Z,6.30
2023-01-09T18:48:54.928Z,6.20
2023-01-09T18:51:23.193Z,6.20
2023-01-09T18:53:51.181Z,6.20
2023-01-09T18:56:20.023Z,6.20
2023-01-09T19:18:15.764Z,5.90
2023-01-09T19:20:42.639Z,5.90
2023-01-09T19:23:09.763Z,5.90
2023-01-09T19:25:36.639Z,5.90
2023-01-09T19:28:03.635Z,5.80
2023-01-09T19:30:30.480Z,5.70
2023-01-09T19:32:57.383Z,5.70
2023-01-09T19:35:24.478Z,5.60
2023-01-09T19:37:51.249Z,5.60
2023-01-09T19:40:18.230Z,5.50
2023-01-09T19:42:45.160Z,5.50
2023-01-09T19:45:12.033Z,5.50
2023-01-09T19:47:39.407Z,5.50
2023-01-09T19:50:08.365Z,5.50
2023-01-09T19:52:37.331Z,5.50
2023-01-09T19:55:05.213Z,5.40
2023-01-09T19:57:32.388Z,5.40
2023-01-09T19:59:59.285Z,5.40
2023-01-09T20:02:28.161Z,5.30
2023-01-09T20:04:55.106Z,5.30
2023-01-09T20:07:21.933Z,5.40
2023-01-09T20:09:49.547Z,5.40
2023-01-09T20:12:16.363Z,5.50
2023-01-09T20:14:45.134Z,5.50
2023-01-09T20:17:12.085Z,5.60
2023-01-09T20:19:39.426Z,5.70
2023-01-09T20:22:08.485Z,5.70
2023-01-09T20:24:35.463Z,5.70
2023-01-09T20:27:02.413Z,5.70
2023-01-09T20:29:29.394Z,5.70
2023-01-09T20:31:56.597Z,5.70
2023-01-09T20:34:23.529Z,5.70
2023-01-09T20:36:51.755Z,5.70
2023-01-09T20:39:18.806Z,5.60
2023-01-09T20:41:45.915Z,5.60
2023-01-09T20:44:14.623Z,5.50
2023-01-09T20:46:47.451Z,5.50
2023-01-09T20:49:17.081Z,5.50
2023-01-09T20:51:46.949Z,5.50
2023-01-09T20:54:15.237Z,5.50
2023-01-09T20:56:42.585Z,5.50
2023-01-09T20:59:17.005Z,5.60
2023-01-09T21:01:43.879Z,5.60
2023-01-09T21:04:10.683Z,5.70
2023-01-09T21:06:38.709Z,5.70
2023-01-09T21:09:06.569Z,5.70
2023-01-09T21:11:33.647Z,5.80
2023-01-09T21:14:00.854Z,5.70
2023-01-09T21:16:28.176Z,5.70
2023-01-09T21:18:55.275Z,5.70
2023-01-09T21:21:27.431Z,5.70
2023-01-09T21:23:57.187Z,5.80
2023-01-09T21:26:27.666Z,5.80
2023-01-09T21:28:56.000Z,5.80
2023-01-09T21:31:34.579Z,5.90
2023-01-09T21:34:07.197Z,5.90
2023-01-09T21:36:35.630Z,5.90
2023-01-09T21:39:05.972Z,5.90
2023-01-09T21:41:52.982Z,5.90
2023-01-09T21:44:38.667Z,5.90
2023-01-09T21:47:05.678Z,5.90
2023-01-09T21:49:34.948Z,6.00
2023-01-09T21:52:04.144Z,6.10
2023-01-09T21:54:31.382Z,6.10
2023-01-09T21:56:59.079Z,6.20
2023-01-09T21:59:26.047Z,6.20
2023-01-09T22:01:53.386Z,6.20
2023-01-09T22:04:22.181Z,6.20
2023-01-09T22:06:49.629Z,6.20
2023-01-09T22:09:16.789Z,6.20
2023-01-09T22:11:44.185Z,6.20
2023-01-09T22:14:16.151Z,6.20
2023-01-09T22:16:44.098Z,6.20
2023-01-09T22:19:17.423Z,6.20
2023-01-09T22:21:44.261Z,6.20
2023-01-09T22:24:17.220Z,6.20
2023-01-09T22:26:44.854Z,6.10
2023-01-09T22:29:11.606Z,6.00
2023-01-09T22:31:39.999Z,5.90
2023-01-09T22:34:07.145Z,5.90
2023-01-09T22:36:34.039Z,5.90
2023-01-09T22:39:01.380Z,5.90
2023-01-09T22:41:30.483Z,5.90
2023-01-09T22:43:57.926Z,5.90
2023-01-09T22:46:25.097Z,5.90
2023-01-09T22:48:51.950Z,5.90
2023-01-09T22:51:21.120Z,5.80
2023-01-09T22:53:48.042Z,5.80
2023-01-09T22:56:18.163Z,5.80
2023-01-09T22:58:49.262Z,5.90
2023-01-09T23:01:16.071Z,5.90
2023-01-09T23:03:43.020Z,5.90
2023-01-09T23:06:15.377Z,5.90
2023-01-09T23:08:43.168Z,5.90
2023-01-09T23:11:13.727Z,5.90
2023-01-09T23:13:40.959Z,6.00
2023-01-09T23:16:08.102Z,5.90
2023-01-09T23:18:35.063Z,6.00
2023-01-09T23:21:04.264Z,6.00
2023-01-09T23:23:32.324Z,6.00
2023-01-09T23:26:02.463Z,6.00
2023-01-09T23:28:30.550Z,6.00
2023-01-09T23:30:57.938Z,6.10
2023-01-09T23:33:25.061Z,6.10
2023-01-09T23:35:52.022Z,6.10
2023-01-09T23:38:20.478Z,6.00
2023-01-09T23:40:47.481Z,6.10
2023-01-09T23:43:15.525Z,6.20
2023-01-09T23:45:44.117Z,6.20
2023-01-09T23:48:13.484Z,6.30
2023-01-09T23:50:44.883Z,6.30
2023-01-09T23:53:11.684Z,6.30
2023-01-09T23:55:38.516Z,6.30
2023-01-09T23:58:05.386Z,6.30
